Time;durP1;ratioP1;P1;durP2;ratioP2;P2;SDS_P1;SDS_P2;PMS_P1;PMS_P2;Temp;Humidity;BMP_temperature;BMP_pressure;BME280_temperature;BME280_humidity;BME280_pressure;Samples;Min_cycle;Max_cycle;Signal;HPM_P1;HPM_P2
2022/04/27 00:00:34;;;;;;;3.88;2.17;;;;;;;11.36;51.65;99182.41;5069986;28;20039;-58
2022/04/27 00:03:01;;;;;;;3.85;2.35;;;;;;;11.39;51.78;99194.69;5069880;28;20031;-59
2022/04/27 00:05:28;;;;;;;5.35;2.13;;;;;;;11.37;51.97;99197.50;5069583;28;20055;-60
2022/04/27 00:07:53;;;;;;;3.40;2.50;;;;;;;11.23;51.93;99190.75;5069591;28;20032;-59
2022/04/27 00:10:19;;;;;;;4.50;2.15;;;;;;;11.20;52.29;99199.91;5051897;28;20029;-60
2022/04/27 00:12:45;;;;;;;4.10;2.53;;;;;;;11.15;52.44;99212.91;5069525;28;20476;-61
2022/04/27 00:15:12;;;;;;;6.25;2.10;;;;;;;11.01;53.03;99211.50;5069782;28;20476;-61
2022/04/27 00:17:38;;;;;;;3.30;1.90;;;;;;;10.80;53.59;99197.41;5051658;28;20052;-59
2022/04/27 00:20:04;;;;;;;4.07;2.05;;;;;;;10.82;53.86;99224.88;5069487;28;20433;-59
2022/04/27 00:22:30;;;;;;;3.15;1.70;;;;;;;10.69;54.04;99220.66;5069947;28;20059;-59
2022/04/27 00:25:00;;;;;;;2.47;2.28;;;;;;;10.61;54.38;99224.03;5069589;28;20037;-58
2022/04/27 00:27:29;;;;;;;2.90;2.00;;;;;;;10.60;54.45;99234.88;5069012;28;20025;-60
2022/04/27 00:29:56;;;;;;;4.22;2.28;;;;;;;10.48;54.81;99237.69;5069722;28;20044;-60
2022/04/27 00:32:21;;;;;;;3.85;2.42;;;;;;;10.29;55.54;99208.16;5069612;28;20025;-60
2022/04/27 00:34:46;;;;;;;2.72;2.15;;;;;;;10.44;55.50;99246.97;5050928;28;20106;-61
2022/04/27 00:37:12;;;;;;;4.30;2.25;;;;;;;10.45;55.67;99246.00;5071724;28;20029;-60
2022/04/27 00:39:37;;;;;;;4.35;2.50;;;;;;;10.43;55.58;99242.59;5073287;28;20028;-60
2022/04/27 00:42:22;;;;;;;3.35;2.67;;;;;;;10.44;55.77;99236.28;5073034;28;20387;-61
2022/04/27 00:44:48;;;;;;;4.40;2.63;;;;;;;10.33;55.98;99242.56;5072976;28;20528;-60
2022/04/27 00:47:15;;;;;;;4.75;2.40;;;;;;;10.29;56.33;99246.47;5054573;28;20028;-60
2022/04/27 00:49:45;;;;;;;3.80;2.90;;;;;;;10.34;56.40;99243.38;5073128;28;20036;-61
2022/04/27 00:52:12;;;;;;;3.50;2.55;;;;;;;10.33;56.40;99247.03;5072865;28;20107;-60
2022/04/27 00:54:48;;;;;;;6.18;2.67;;;;;;;10.31;56.79;99249.88;5071938;28;20440;-59
2022/04/27 00:57:14;;;;;;;2.85;2.55;;;;;;;10.32;56.37;99245.34;5071303;28;20028;-61
2022/04/27 00:59:40;;;;;;;3.03;2.30;;;;;;;10.34;56.58;99243.38;5072660;28;20024;-57
2022/04/27 01:02:06;;;;;;;3.35;2.50;;;;;;;10.36;56.37;99245.94;5072196;28;20055;-61
2022/04/27 01:04:36;;;;;;;3.03;2.50;;;;;;;10.38;56.64;99246.63;5072509;28;20036;-59
2022/04/27 01:07:03;;;;;;;4.03;2.92;;;;;;;10.34;56.41;99249.59;5054338;28;20048;-57
2022/04/27 01:09:29;;;;;;;3.88;2.90;;;;;;;10.28;56.53;99249.28;5072253;28;20075;-58
2022/04/27 01:11:57;;;;;;;5.55;2.95;;;;;;;10.26;56.81;99245.91;5054211;28;20430;-60
2022/04/27 01:14:22;;;;;;;5.28;2.90;;;;;;;10.20;57.29;99257.97;5054313;28;20032;-61
2022/04/27 01:16:52;;;;;;;3.50;2.28;;;;;;;10.19;57.30;99248.25;5072415;28;20384;-61
2022/04/27 01:19:18;;;;;;;4.35;2.55;;;;;;;10.15;57.68;99257.56;5072235;28;20055;-61
2022/04/27 01:21:44;;;;;;;6.40;2.75;;;;;;;10.11;57.80;99250.78;5072660;28;20123;-61
2022/04/27 01:24:11;;;;;;;5.75;2.90;;;;;;;10.10;57.66;99249.09;5053994;28;20128;-61
2022/04/27 01:26:37;;;;;;;3.22;2.92;;;;;;;10.03;57.62;99243.44;5071816;28;20036;-60
2022/04/27 01:29:04;;;;;;;3.20;2.70;;;;;;;9.98;57.90;99243.00;5037734;28;20432;-61
2022/04/27 01:31:29;;;;;;;5.18;3.10;;;;;;;9.81;58.33;99236.44;5071832;28;20111;-60
2022/04/27 01:33:55;;;;;;;5.85;2.70;;;;;;;9.82;58.55;99254.19;5071825;28;20445;-62
2022/04/27 01:36:21;;;;;;;4.53;2.35;;;;;;;9.80;58.38;99256.97;5072089;28;20037;-60
2022/04/27 01:38:47;;;;;;;5.05;2.78;;;;;;;9.78;58.89;99253.59;5072199;28;20041;-58
2022/04/27 01:41:12;;;;;;;4.07;2.28;;;;;;;9.78;58.90;99261.59;5071737;28;20417;-62
2022/04/27 01:43:38;;;;;;;6.53;2.70;;;;;;;9.72;58.75;99252.28;5071950;28;20034;-60
2022/04/27 01:46:05;;;;;;;2.63;2.40;;;;;;;9.69;59.11;99257.06;5053871;28;20438;-56
2022/04/27 01:48:32;;;;;;;4.50;2.78;;;;;;;9.61;59.55;99253.22;5071293;28;20089;-59
2022/04/27 01:50:57;;;;;;;3.60;2.78;;;;;;;9.54;59.68;99254.72;5071408;28;20068;-60
2022/04/27 01:56:07;;;;;;;3.60;3.30;;;;;;;9.42;60.25;99261.13;5071481;28;20032;-59
2022/04/27 01:58:33;;;;;;;6.70;3.22;;;;;;;9.37;60.15;99255.31;5071617;28;20387;-63
2022/04/27 02:01:00;;;;;;;4.97;2.92;;;;;;;9.39;60.29;99259.56;5071221;28;20021;-60
2022/04/27 02:03:25;;;;;;;5.72;3.10;;;;;;;9.37;60.88;99261.50;5071321;28;20028;-58
2022/04/27 02:05:52;;;;;;;8.07;3.17;;;;;;;9.38;60.47;99260.53;5053374;28;20036;-56
2022/04/27 02:08:18;;;;;;;3.63;2.67;;;;;;;9.37;60.55;99260.66;5053304;28;20029;-61
2022/04/27 02:10:44;;;;;;;3.05;2.72;;;;;;;9.29;60.72;99254.16;5071342;28;20181;-53
2022/04/27 02:13:10;;;;;;;6.70;3.30;;;;;;;9.17;60.96;99252.53;5071077;28;20039;-58
2022/04/27 02:15:35;;;;;;;4.15;3.00;;;;;;;9.29;61.15;99275.50;5071237;28;20516;-55
2022/04/27 02:18:01;;;;;;;4.85;2.65;;;;;;;9.30;61.16;99279.88;5071306;28;20127;-53
2022/04/27 02:20:28;;;;;;;6.50;3.30;;;;;;;9.31;61.15;99267.38;5071098;28;20032;-54
2022/04/27 02:22:54;;;;;;;3.35;2.97;;;;;;;9.35;61.11;99274.16;5070702;28;20098;-55
2022/04/27 02:25:20;;;;;;;3.40;3.10;;;;;;;9.38;61.39;99283.72;5071324;28;20043;-56
2022/04/27 02:27:46;;;;;;;4.50;3.25;;;;;;;9.38;61.17;99273.91;5071389;28;20040;-52
2022/04/27 02:30:12;;;;;;;4.03;3.35;;;;;;;9.19;61.49;99258.59;5035867;28;20048;-53
2022/04/27 02:32:38;;;;;;;6.57;3.60;;;;;;;9.31;61.61;99278.91;5070403;28;20468;-58
2022/04/27 02:35:06;;;;;;;6.00;3.20;;;;;;;9.28;61.69;99281.84;5070584;28;20032;-54
2022/04/27 02:37:32;;;;;;;4.85;3.25;;;;;;;9.28;61.79;99288.97;5052525;28;20116;-54
2022/04/27 02:39:58;;;;;;;5.05;3.40;;;;;;;9.18;62.04;99281.75;5070149;28;20119;-57
2022/04/27 02:42:24;;;;;;;8.63;3.40;;;;;;;9.20;62.57;99292.31;5052668;28;20024;-56
2022/04/27 02:44:49;;;;;;;6.38;3.67;;;;;;;9.14;62.80;99293.69;5070448;28;20146;-59
2022/04/27 02:47:15;;;;;;;6.53;3.38;;;;;;;9.17;62.93;99295.25;5070468;28;20392;-53
2022/04/27 02:52:25;;;;;;;5.97;3.63;;;;;;;9.24;62.37;99291.09;5052627;28;20566;-56
2022/04/27 02:54:50;;;;;;;5.80;3.60;;;;;;;9.37;62.10;99301.59;5036042;28;20115;-61
2022/04/27 02:57:16;;;;;;;5.13;3.67;;;;;;;9.41;62.10;99305.69;5070547;28;20035;-53
2022/04/27 02:59:45;;;;;;;8.35;4.35;;;;;;;9.44;62.17;99293.91;5069931;28;20032;-58
2022/04/27 03:02:10;;;;;;;6.22;4.00;;;;;;;9.45;62.09;99306.28;5070611;28;20039;-62
2022/04/27 03:04:36;;;;;;;5.65;3.63;;;;;;;9.50;62.16;99300.53;5070408;28;20036;-60
2022/04/27 03:07:02;;;;;;;8.63;3.70;;;;;;;9.33;61.84;99271.59;5070398;28;20082;-58
2022/04/27 03:09:29;;;;;;;5.75;3.33;;;;;;;9.48;61.58;99295.34;5070777;28;20024;-60
2022/04/27 03:11:55;;;;;;;9.07;3.60;;;;;;;9.47;61.68;99301.66;5070070;28;20029;-58
2022/04/27 03:14:21;;;;;;;8.50;3.67;;;;;;;9.44;61.71;99299.25;5052390;28;20115;-59
2022/04/27 03:16:47;;;;;;;7.53;3.60;;;;;;;9.49;61.90;99305.06;5070569;28;20107;-61
2022/04/27 03:19:13;;;;;;;6.97;3.90;;;;;;;9.53;61.63;99303.81;5052216;28;20033;-57
2022/04/27 03:21:38;;;;;;;6.13;3.03;;;;;;;9.57;61.47;99294.53;5052131;28;20135;-57
2022/04/27 03:24:05;;;;;;;4.30;3.00;;;;;;;9.65;61.59;99295.75;5070331;28;20044;-61
2022/04/27 03:26:30;;;;;;;4.15;2.95;;;;;;;9.67;61.28;99293.78;5069932;28;20119;-59
2022/04/27 03:28:55;;;;;;;5.32;2.75;;;;;;;9.82;60.71;99305.81;5069985;28;20447;-58
2022/04/27 03:31:21;;;;;;;3.75;2.60;;;;;;;9.93;60.63;99302.22;5052481;28;20559;-56
2022/04/27 03:33:46;;;;;;;5.70;3.10;;;;;;;10.04;59.83;99304.81;5070303;28;20064;-59
2022/04/27 03:36:12;;;;;;;3.58;2.67;;;;;;;10.17;59.69;99307.28;5051981;28;21044;-60
2022/04/27 03:38:38;;;;;;;3.83;3.10;;;;;;;10.39;59.39;99309.88;5070138;28;20033;-59
2022/04/27 03:41:04;;;;;;;4.20;2.80;;;;;;;10.61;58.59;99298.16;5069768;28;20029;-57
2022/04/27 03:43:30;;;;;;;4.30;2.90;;;;;;;11.23;56.05;99273.81;5070213;28;20032;-61
2022/04/27 03:45:56;;;;;;;3.80;2.80;;;;;;;12.43;52.93;99311.78;5069972;28;20032;-60
2022/04/27 03:48:22;;;;;;;3.55;2.47;;;;;;;13.46;50.08;99312.53;5070305;28;20040;-61
2022/04/27 03:50:47;;;;;;;7.65;2.70;;;;;;;14.30;47.75;99314.78;5052068;28;20020;-61
2022/04/27 03:53:13;;;;;;;6.95;3.20;;;;;;;14.81;45.96;99305.91;5069969;28;20032;-61
2022/04/27 03:55:38;;;;;;;5.93;3.30;;;;;;;14.98;45.51;99321.13;5034113;28;20021;-61
2022/04/27 03:58:05;;;;;;;7.50;3.00;;;;;;;15.36;44.32;99316.13;5051749;28;20039;-61
2022/04/27 04:00:31;;;;;;;6.97;2.80;;;;;;;15.68;43.65;99318.16;5070243;28;20039;-61
2022/04/27 04:03:01;;;;;;;4.28;2.88;;;;;;;16.01;43.35;99312.75;5052115;28;20056;-61
2022/04/27 04:05:27;;;;;;;5.97;2.92;;;;;;;16.80;41.02;99311.94;5069924;28;20053;-62
2022/04/27 04:07:53;;;;;;;5.22;2.75;;;;;;;18.42;37.82;99311.97;5069894;28;20111;-60
2022/04/27 04:10:18;;;;;;;4.90;2.78;;;;;;;19.70;34.99;99310.66;5051453;28;20524;-59
2022/04/27 04:12:45;;;;;;;3.45;2.40;;;;;;;20.78;32.93;99313.03;5069064;28;20936;-63
2022/04/27 04:15:11;;;;;;;4.95;2.90;;;;;;;21.63;30.96;99289.13;5062230;28;20100;-63
2022/04/27 04:17:37;;;;;;;4.10;2.60;;;;;;;22.50;29.35;99308.13;5062960;28;20036;-70
2022/04/27 04:20:03;;;;;;;2.85;2.55;;;;;;;23.22;28.05;99309.84;5061335;28;20025;-62
2022/04/27 04:22:29;;;;;;;7.50;2.42;;;;;;;23.75;27.27;99309.72;5062473;28;20058;-62
2022/04/27 04:30:22;;;;;;;6.68;2.22;;;;;;;25.82;23.52;99310.16;5043356;28;20024;-63
2022/04/27 04:32:48;;;;;;;2.75;2.15;;;;;;;26.54;22.58;99304.63;5044308;28;20021;-62
2022/04/27 04:35:14;;;;;;;3.38;2.20;;;;;;;26.90;22.16;99310.88;5062618;28;20028;-63
2022/04/27 04:37:39;;;;;;;5.95;2.20;;;;;;;26.83;22.20;99299.16;5026147;28;20453;-62
2022/04/27 04:40:05;;;;;;;5.18;2.25;;;;;;;27.05;21.52;99311.19;5044584;28;20036;-62
2022/04/27 04:42:33;;;;;;;3.60;2.40;;;;;;;27.67;21.27;99319.72;5061997;28;20025;-61
2022/04/27 04:44:59;;;;;;;4.60;1.95;;;;;;;28.20;19.82;99309.25;5060568;28;20445;-61
2022/04/27 04:47:25;;;;;;;2.33;2.13;;;;;;;28.82;18.94;99283.63;5044592;28;20063;-62
2022/04/27 04:49:51;;;;;;;3.92;2.20;;;;;;;29.46;18.33;99293.94;5062315;28;20032;-60
2022/04/27 04:52:16;;;;;;;4.65;2.22;;;;;;;30.20;17.60;99313.53;5060497;28;20033;-61
2022/04/27 04:54:41;;;;;;;6.72;1.95;;;;;;;30.54;16.77;99301.28;5062561;28;20429;-62
2022/04/27 04:57:07;;;;;;;2.20;1.83;;;;;;;30.06;16.89;99306.81;5061389;28;20541;-62
2022/04/27 04:59:32;;;;;;;2.88;2.15;;;;;;;28.79;17.91;99307.00;5043348;28;20464;-63
2022/04/27 05:01:58;;;;;;;3.08;1.83;;;;;;;28.54;18.29;99304.75;5044381;28;20033;-61
2022/04/27 05:04:23;;;;;;;2.28;1.83;;;;;;;28.49;18.38;99309.09;5061132;28;20021;-62
2022/04/27 05:06:49;;;;;;;3.05;1.75;;;;;;;28.32;18.38;99311.06;5061137;28;20028;-62
2022/04/27 05:09:14;;;;;;;2.45;2.05;;;;;;;27.74;18.87;99316.78;5043770;28;20815;-62
2022/04/27 05:11:39;;;;;;;4.45;2.63;;;;;;;26.41;20.33;99325.75;5060390;28;20032;-62
2022/04/27 05:14:05;;;;;;;5.20;2.13;;;;;;;25.47;21.15;99310.91;5062057;28;20083;-61
2022/04/27 05:16:32;;;;;;;3.83;1.95;;;;;;;25.12;22.06;99325.31;5043753;28;20476;-63
2022/04/27 05:18:58;;;;;;;2.20;2.00;;;;;;;25.19;22.11;99337.00;5060450;28;20372;-64
2022/04/27 05:21:24;;;;;;;4.50;2.17;;;;;;;25.48;21.46;99335.34;5062205;28;20348;-63
2022/04/27 05:23:50;;;;;;;4.95;2.10;;;;;;;26.34;20.16;99338.78;5060500;28;20033;-64
2022/04/27 05:26:16;;;;;;;4.55;2.05;;;;;;;26.82;19.78;99335.94;5060454;28;20815;-63
2022/04/27 05:34:09;;;;;;;5.90;2.20;;;;;;;28.26;18.25;99325.84;5041331;28;20020;-65
2022/04/27 05:36:34;;;;;;;4.43;2.20;;;;;;;28.12;18.27;99331.66;5058970;28;20410;-62
2022/04/27 05:39:00;;;;;;;6.30;2.10;;;;;;;27.57;18.78;99314.88;5050502;28;20025;-61
2022/04/27 05:41:25;;;;;;;3.25;2.40;;;;;;;27.69;18.66;99338.69;5034327;28;20040;-63
2022/04/27 05:43:51;;;;;;;3.05;2.10;;;;;;;27.89;18.40;99330.78;5052289;28;20031;-63
2022/04/27 05:46:16;;;;;;;2.72;2.05;;;;;;;27.97;18.14;99336.94;5051968;28;20131;-62
2022/04/27 05:48:42;;;;;;;3.45;2.53;;;;;;;27.89;18.18;99330.78;5052187;28;20036;-63
2022/04/27 05:51:07;;;;;;;3.25;2.45;;;;;;;27.77;18.60;99330.84;5052034;28;20389;-63
2022/04/27 05:53:33;;;;;;;3.95;2.50;;;;;;;28.34;18.00;99325.41;5051783;28;20029;-61
2022/04/27 05:55:58;;;;;;;3.13;1.90;;;;;;;28.69;16.81;99328.88;5052116;28;20029;-62
2022/04/27 05:58:24;;;;;;;3.80;1.73;;;;;;;29.11;16.20;99333.81;5052068;28;20129;-61
2022/04/27 06:00:50;;;;;;;2.50;1.88;;;;;;;30.72;14.62;99333.16;5051577;28;20021;-61
2022/04/27 06:03:15;;;;;;;6.88;1.98;;;;;;;32.24;13.24;99327.53;5051451;28;20116;-61
2022/04/27 06:05:41;;;;;;;3.35;1.73;;;;;;;32.90;12.54;99316.53;5051598;28;20033;-61
2022/04/27 06:08:07;;;;;;;2.63;1.80;;;;;;;33.48;12.07;99334.47;5051473;28;20043;-62
2022/04/27 06:10:32;;;;;;;4.03;1.90;;;;;;;34.07;11.71;99340.13;5050974;28;20033;-60
2022/04/27 06:12:58;;;;;;;1.88;1.55;;;;;;;33.72;11.61;99337.34;5051476;28;20029;-62
2022/04/27 06:15:24;;;;;;;2.10;1.50;;;;;;;33.60;11.64;99340.50;5052060;28;20043;-61
2022/04/27 06:17:50;;;;;;;2.42;1.42;;;;;;;34.39;11.13;99341.44;5051516;28;20028;-61
2022/04/27 06:20:15;;;;;;;4.20;2.33;;;;;;;34.73;10.69;99356.38;5051148;28;20041;-60
2022/04/27 06:22:41;;;;;;;3.67;1.90;;;;;;;34.00;11.19;99357.13;5051065;28;20338;-61
2022/04/27 06:25:07;;;;;;;3.92;1.88;;;;;;;32.77;11.89;99354.81;5054097;28;20033;-61
2022/04/27 06:27:32;;;;;;;4.22;2.08;;;;;;;31.18;13.17;99356.53;5063547;28;20030;-62
2022/04/27 06:29:58;;;;;;;6.72;1.95;;;;;;;29.65;14.58;99345.94;5033732;28;20055;-65
2022/04/27 06:32:24;;;;;;;4.70;1.92;;;;;;;28.90;14.95;99365.81;5060664;28;20041;-62
2022/04/27 06:34:49;;;;;;;5.57;2.30;;;;;;;28.77;15.48;99361.47;5051383;28;20035;-61
2022/04/27 06:37:15;;;;;;;5.47;1.80;;;;;;;29.50;14.64;99369.53;5051073;28;20154;-61
2022/04/27 06:39:40;;;;;;;3.35;1.92;;;;;;;31.28;13.53;99367.63;5050449;28;20113;-61
2022/04/27 06:42:07;;;;;;;2.10;1.85;;;;;;;32.85;11.91;99355.34;5050652;28;20056;-62
2022/04/27 06:44:34;;;;;;;3.45;1.98;;;;;;;33.82;11.51;99377.25;5050965;28;20419;-61
2022/04/27 06:46:59;;;;;;;3.15;1.92;;;;;;;34.30;10.73;99371.00;5050957;28;20093;-63
2022/04/27 06:49:25;;;;;;;3.75;1.90;;;;;;;34.83;10.56;99363.75;5051148;28;20108;-61
2022/04/27 06:51:50;;;;;;;5.32;2.00;;;;;;;35.17;10.48;99354.41;5051003;28;20029;-60
2022/04/27 06:54:16;;;;;;;6.45;2.50;;;;;;;35.47;10.75;99366.25;5050663;28;20036;-61
2022/04/27 06:56:41;;;;;;;3.83;1.90;;;;;;;35.10;10.26;99377.06;5050590;28;20032;-61
2022/04/27 06:59:07;;;;;;;4.47;2.25;;;;;;;34.77;10.55;99355.50;5050988;28;20473;-61
2022/04/27 07:01:32;;;;;;;3.08;1.98;;;;;;;36.07;9.56;99359.16;5050641;28;20468;-61
2022/04/27 07:04:06;;;;;;;4.82;2.00;;;;;;;37.84;9.00;99368.25;5050979;28;20069;-62
2022/04/27 07:06:32;;;;;;;3.38;2.20;;;;;;;38.62;8.07;99377.44;5032606;28;20037;-62
2022/04/27 07:08:57;;;;;;;2.28;2.05;;;;;;;39.60;7.53;99373.66;5050993;28;20114;-64
2022/04/27 07:11:23;;;;;;;2.33;2.05;;;;;;;40.30;6.70;99364.34;5050316;28;20047;-61
2022/04/27 07:13:49;;;;;;;6.65;2.42;;;;;;;39.97;7.17;99362.94;5050471;28;20036;-62
2022/04/27 07:16:14;;;;;;;5.00;2.28;;;;;;;38.23;8.53;99371.50;5050714;28;20029;-60
2022/04/27 07:18:39;;;;;;;5.20;2.60;;;;;;;36.73;9.12;99372.16;5050505;28;20108;-61
2022/04/27 07:21:08;;;;;;;2.63;2.30;;;;;;;33.96;10.97;99371.88;5050409;28;20392;-62
2022/04/27 07:23:34;;;;;;;5.15;2.30;;;;;;;33.72;11.06;99384.56;5050583;28;20100;-61
2022/04/27 07:25:59;;;;;;;5.00;2.10;;;;;;;34.64;10.58;99392.34;5050766;28;20094;-61
2022/04/27 07:28:25;;;;;;;2.65;2.00;;;;;;;35.69;9.82;99360.06;5049962;28;20037;-61
2022/04/27 07:30:50;;;;;;;2.58;2.22;;;;;;;37.27;8.41;99386.34;5050443;28;20025;-61
2022/04/27 07:33:16;;;;;;;2.33;2.08;;;;;;;38.28;8.06;99376.09;5050706;28;20044;-63
2022/04/27 07:35:41;;;;;;;2.15;1.95;;;;;;;39.99;7.21;99380.22;5050125;28;20119;-62
2022/04/27 07:38:07;;;;;;;7.18;2.10;;;;;;;40.93;6.78;99379.72;5049777;28;20044;-62
2022/04/27 07:40:32;;;;;;;5.88;2.03;;;;;;;41.97;6.37;99362.38;5032811;28;20037;-63
2022/04/27 07:42:59;;;;;;;3.35;1.90;;;;;;;40.32;6.87;99373.25;5050836;28;20075;-61
2022/04/27 07:45:25;;;;;;;2.65;1.65;;;;;;;36.55;8.97;99385.06;5050763;28;20033;-61
2022/04/27 07:47:51;;;;;;;4.15;1.95;;;;;;;32.82;11.25;99390.00;5053953;28;20107;-60
2022/04/27 07:50:17;;;;;;;2.95;1.80;;;;;;;29.82;13.57;99401.00;5054109;28;20037;-62
2022/04/27 07:52:43;;;;;;;3.17;1.88;;;;;;;27.71;15.63;99394.28;5054612;28;20029;-61
2022/04/27 07:55:10;;;;;;;6.28;1.80;;;;;;;29.36;14.47;99379.28;5036711;28;20119;-61
2022/04/27 07:57:37;;;;;;;2.00;1.80;;;;;;;30.58;12.94;99376.16;5053750;28;20029;-62
2022/04/27 08:00:08;;;;;;;2.30;1.60;;;;;;;29.30;13.91;99383.91;5019996;28;20491;-61
2022/04/27 08:02:35;;;;;;;1.70;1.40;;;;;;;26.65;16.16;99391.63;5054739;28;20109;-63
2022/04/27 08:05:01;;;;;;;2.60;1.73;;;;;;;24.50;18.08;99358.03;5054247;28;20036;-61
2022/04/27 08:07:39;;;;;;;1.60;1.50;;;;;;;23.45;19.21;99398.63;5053833;28;20070;-61
2022/04/27 08:10:30;;;;;;;3.90;1.70;;;;;;;22.31;20.08;99391.63;5053881;28;20039;-61
2022/04/27 08:12:56;;;;;;;3.97;1.42;;;;;;;20.83;22.24;99390.50;5050244;28;20138;-61
2022/04/27 08:15:24;;;;;;;3.42;1.65;;;;;;;20.04;23.69;99390.59;5053819;28;20052;-61
2022/04/27 08:17:54;;;;;;;10.00;2.22;;;;;;;19.61;24.63;99395.00;5053641;28;20056;-62
2022/04/27 08:23:16;;;;;;;7.05;2.38;;;;;;;19.38;25.72;99372.63;5029874;28;20111;-61
2022/04/27 08:25:42;;;;;;;2.40;1.67;;;;;;;19.44;24.91;99361.84;5035475;28;20041;-61
2022/04/27 08:28:08;;;;;;;1.85;1.50;;;;;;;19.50;24.70;99384.63;5053291;28;20510;-62
2022/04/27 08:30:39;;;;;;;4.22;1.80;;;;;;;19.35;25.15;99380.09;5053661;28;20045;-62
2022/04/27 08:33:05;;;;;;;2.83;1.90;;;;;;;18.87;25.04;99385.16;5053523;28;20025;-61
2022/04/27 08:35:31;;;;;;;4.63;1.58;;;;;;;18.31;25.89;99378.31;5053826;28;20036;-62
2022/04/27 08:38:01;;;;;;;3.72;1.70;;;;;;;17.74;26.93;99392.19;5053317;28;20029;-66
2022/04/27 08:40:27;;;;;;;5.25;1.98;;;;;;;17.27;27.56;99393.19;5053570;28;20033;-62
2022/04/27 08:42:54;;;;;;;3.10;1.67;;;;;;;16.94;28.77;99396.88;5052999;28;20083;-60
2022/04/27 08:45:20;;;;;;;4.15;1.95;;;;;;;16.62;29.67;99390.56;5053320;28;20053;-61
2022/04/27 08:47:49;;;;;;;6.28;2.50;;;;;;;16.29;30.79;99396.06;5053225;28;20109;-59
2022/04/27 08:50:16;;;;;;;5.05;2.00;;;;;;;15.67;31.29;99349.69;5053049;28;20029;-61
2022/04/27 08:52:43;;;;;;;4.75;2.33;;;;;;;15.59;31.94;99399.09;5052631;28;20021;-62
2022/04/27 08:55:09;;;;;;;6.72;2.70;;;;;;;15.40;32.45;99404.78;5052802;28;20456;-61
2022/04/27 08:57:35;;;;;;;9.55;2.67;;;;;;;15.31;32.93;99394.00;5051839;28;20131;-59
2022/04/27 09:00:05;;;;;;;4.28;2.55;;;;;;;15.32;33.70;99403.78;5052454;28;20536;-60
2022/04/27 09:02:31;;;;;;;9.23;2.63;;;;;;;15.36;34.05;99401.59;5052781;28;20059;-62
2022/04/27 09:05:19;;;;;;;4.18;2.80;;;;;;;15.72;32.47;99419.34;5052252;28;20037;-62
2022/04/27 09:07:50;;;;;;;4.75;2.40;;;;;;;15.89;33.70;99407.56;5052443;28;20423;-63
2022/04/27 09:10:21;;;;;;;5.68;2.60;;;;;;;16.24;33.20;99423.56;5034810;28;20029;-61
2022/04/27 09:12:48;;;;;;;6.75;2.30;;;;;;;16.56;32.52;99419.16;5052454;28;20025;-62
2022/04/27 09:15:15;;;;;;;9.48;3.28;;;;;;;16.93;32.16;99409.53;5052072;28;20471;-62
2022/04/27 09:23:24;;;;;;;6.47;2.47;;;;;;;17.69;30.91;99413.53;5051902;28;20045;-62
2022/04/27 09:26:00;;;;;;;4.47;3.05;;;;;;;17.97;30.96;99418.41;5052132;28;20516;-63
2022/04/27 09:28:29;;;;;;;4.18;2.83;;;;;;;18.07;30.14;99419.03;5052332;28;20427;-61
2022/04/27 09:30:55;;;;;;;3.53;2.67;;;;;;;17.79;30.41;99416.84;5052301;28;20088;-61
2022/04/27 09:33:37;;;;;;;7.57;2.85;;;;;;;17.66;30.49;99427.44;5051852;28;20032;-61
2022/04/27 09:36:23;;;;;;;5.10;3.30;;;;;;;17.32;30.94;99424.09;5051924;28;20077;-61
2022/04/27 09:38:53;;;;;;;4.13;3.05;;;;;;;17.03;32.25;99430.16;5051659;28;20036;-62
2022/04/27 09:41:39;;;;;;;6.13;2.90;;;;;;;17.09;31.64;99426.75;5051878;28;20372;-61
2022/04/27 09:44:04;;;;;;;4.93;3.17;;;;;;;17.00;32.19;99420.53;5051843;28;20033;-59
2022/04/27 09:46:30;;;;;;;7.18;2.95;;;;;;;16.96;32.23;99399.38;5052263;28;20044;-60
2022/04/27 09:49:04;;;;;;;3.20;2.53;;;;;;;17.43;31.57;99430.13;5052238;28;20033;-62
2022/04/27 09:51:31;;;;;;;5.57;3.20;;;;;;;17.70;31.47;99439.56;5051933;28;20037;-60
2022/04/27 09:53:59;;;;;;;8.20;3.08;;;;;;;18.17;30.59;99429.59;5051545;28;20364;-61
2022/04/27 09:56:39;;;;;;;3.13;2.83;;;;;;;18.61;30.11;99425.25;5051740;28;20039;-61
2022/04/27 09:59:09;;;;;;;7.03;2.70;;;;;;;18.71;28.52;99433.13;5052226;28;20547;-61
2022/04/27 10:01:36;;;;;;;5.32;2.40;;;;;;;18.58;28.37;99439.19;5051295;28;20056;-61
2022/04/27 10:04:04;;;;;;;3.60;3.10;;;;;;;18.45;29.16;99437.13;5051542;28;20033;-61
2022/04/27 10:06:34;;;;;;;5.03;2.97;;;;;;;18.14;29.91;99446.22;5051806;28;20025;-62
2022/04/27 10:09:04;;;;;;;3.40;2.38;;;;;;;17.80;29.96;99439.34;5051677;28;20115;-63
2022/04/27 10:11:32;;;;;;;4.70;2.88;;;;;;;17.30;30.11;99445.06;5051186;28;20029;-61
2022/04/27 10:13:58;;;;;;;2.35;2.15;;;;;;;16.86;30.95;99432.03;5051297;28;20043;-62
2022/04/27 10:16:25;;;;;;;3.80;2.60;;;;;;;16.63;31.96;99443.59;5051491;28;20550;-61
2022/04/27 10:18:51;;;;;;;6.18;2.30;;;;;;;16.55;32.06;99449.88;5051533;28;20104;-60
2022/04/27 10:21:39;;;;;;;3.85;2.22;;;;;;;16.82;31.17;99446.94;5051188;28;20512;-61
2022/04/27 10:24:08;;;;;;;4.47;2.30;;;;;;;16.76;31.25;99446.63;5051244;28;20037;-62
2022/04/27 10:26:34;;;;;;;3.38;2.13;;;;;;;16.75;31.33;99447.63;5051067;28;20047;-61
2022/04/27 10:29:01;;;;;;;2.75;2.00;;;;;;;16.88;30.92;99451.63;5050653;28;20028;-62
2022/04/27 10:31:48;;;;;;;3.47;2.20;;;;;;;17.23;30.30;99460.34;5051013;28;20037;-62
2022/04/27 10:34:24;;;;;;;3.97;2.30;;;;;;;17.19;30.23;99456.31;5050894;28;20094;-63
2022/04/27 10:36:52;;;;;;;2.60;1.80;;;;;;;17.29;29.69;99456.09;5050960;28;20031;-61
2022/04/27 10:39:22;;;;;;;5.65;1.98;;;;;;;17.53;29.34;99457.78;5050456;28;20527;-61
2022/04/27 10:41:49;;;;;;;5.13;1.88;;;;;;;17.88;28.99;99451.97;5033073;28;20067;-62
2022/04/27 10:44:15;;;;;;;4.30;1.75;;;;;;;18.35;28.32;99463.66;5050685;28;20072;-61
2022/04/27 10:46:44;;;;;;;2.70;1.80;;;;;;;18.73;27.82;99460.06;5050657;28;20068;-62
2022/04/27 10:49:24;;;;;;;4.80;1.58;;;;;;;19.16;27.05;99456.69;5051202;28;20029;-62
2022/04/27 10:52:10;;;;;;;4.28;1.58;;;;;;;19.46;26.36;99453.91;5050734;28;20090;-62
2022/04/27 10:54:37;;;;;;;4.30;1.63;;;;;;;19.40;26.56;99454.69;5050742;28;20059;-62
2022/04/27 10:57:14;;;;;;;7.50;1.65;;;;;;;19.59;26.26;99454.09;5050990;28;20068;-63
2022/04/27 11:00:05;;;;;;;3.92;1.50;;;;;;;19.57;26.07;99452.59;5051135;28;20086;-63
2022/04/27 11:02:37;;;;;;;5.50;1.40;;;;;;;18.73;26.34;99431.06;5050654;28;20032;-62
2022/04/27 11:05:18;;;;;;;1.48;1.25;;;;;;;18.47;27.33;99470.31;5050963;28;20044;-62
2022/04/27 11:08:32;;;;;;;4.32;1.25;;;;;;;18.10;28.32;99471.16;5051175;28;20469;-63
2022/04/27 11:11:03;;;;;;;2.55;1.20;;;;;;;17.44;29.78;99472.41;5049882;28;20028;-62
2022/04/27 11:13:31;;;;;;;2.33;1.42;;;;;;;17.04;30.79;99486.78;5051039;28;20039;-61
2022/04/27 11:16:10;;;;;;;4.85;1.38;;;;;;;16.54;31.96;99452.75;5050919;28;20440;-64
2022/04/27 11:18:58;;;;;;;8.80;1.90;;;;;;;16.21;33.06;99495.00;5033031;28;20115;-62
2022/04/27 11:21:29;;;;;;;5.88;2.22;;;;;;;15.61;36.01;99512.28;5049929;28;20029;-62
2022/04/27 11:23:57;;;;;;;6.72;2.25;;;;;;;15.21;38.10;99520.06;5051063;28;20029;-62
2022/04/27 11:26:22;;;;;;;3.55;1.90;;;;;;;14.81;38.94;99508.88;5032680;28;20068;-62
2022/04/27 11:28:48;;;;;;;6.68;2.38;;;;;;;14.67;40.53;99526.44;5050153;28;20084;-62
2022/04/27 11:31:16;;;;;;;2.83;2.13;;;;;;;14.53;41.03;99535.94;5016293;28;20037;-63
2022/04/27 11:33:42;;;;;;;7.35;2.22;;;;;;;14.19;42.21;99537.50;5051019;28;20473;-63
2022/04/27 11:36:20;;;;;;;3.78;1.73;;;;;;;14.14;40.49;99545.22;5050434;28;20029;-63
2022/04/27 11:38:46;;;;;;;4.45;1.73;;;;;;;13.73;39.26;99529.50;5050237;28;20033;-64
2022/04/27 11:41:16;;;;;;;3.42;1.25;;;;;;;13.65;38.56;99537.50;5050774;28;20079;-62
2022/04/27 11:43:41;;;;;;;1.38;1.25;;;;;;;13.50;38.22;99542.50;5050760;28;20036;-63
2022/04/27 11:46:08;;;;;;;1.80;1.48;;;;;;;13.48;38.56;99547.19;5050407;28;20390;-62
2022/04/27 11:48:34;;;;;;;3.53;1.42;;;;;;;13.56;37.49;99547.31;5050206;28;20107;-62
2022/04/27 11:51:02;;;;;;;2.65;1.55;;;;;;;13.71;37.65;99550.34;5050450;28;20032;-62
2022/04/27 11:53:28;;;;;;;4.03;1.33;;;;;;;13.85;37.68;99548.97;5050645;28;20033;-62
2022/04/27 11:55:54;;;;;;;1.90;1.50;;;;;;;13.97;37.49;99540.66;5050439;28;20079;-62
2022/04/27 11:58:29;;;;;;;5.13;2.10;;;;;;;14.26;37.26;99551.22;5032078;28;20036;-62
2022/04/27 12:00:58;;;;;;;3.40;1.92;;;;;;;14.32;37.63;99547.88;5032388;28;20036;-62